Time;durP1;ratioP1;P1;durP2;ratioP2;P2;SDS_P1;SDS_P2;PMS_P1;PMS_P2;Temp;Humidity;BMP_temperature;BMP_pressure;BME280_temperature;BME280_humidity;BME280_pressure;Samples;Min_cycle;Max_cycle;Signal;HPM_P1;HPM_P2
2023/02/27 00:00:38;;;;;;;21.88;6.43;;;;;;;15.77;59.61;98955.31;5013286;28;20026;-85
2023/02/27 00:03:04;;;;;;;17.77;5.63;;;;;;;15.45;59.22;98904.91;5013581;28;20117;-83
2023/02/27 00:05:29;;;;;;;15.30;6.07;;;;;;;16.09;59.50;99007.28;5013113;28;20100;-85
2023/02/27 00:07:55;;;;;;;14.35;5.35;;;;;;;15.68;59.41;98940.69;5011748;28;20033;-85
2023/02/27 00:10:21;;;;;;;18.42;5.82;;;;;;;15.24;59.94;98881.47;5013040;28;20475;-84
2023/02/27 00:12:46;;;;;;;18.00;5.60;;;;;;;15.84;60.04;98975.47;5012949;28;20033;-86
2023/02/27 00:15:17;;;;;;;17.58;5.38;;;;;;;15.36;59.80;98900.94;5011664;28;20033;-84
2023/02/27 00:17:43;;;;;;;19.73;5.72;;;;;;;15.57;60.19;98967.00;5012907;28;20054;-85
2023/02/27 00:20:11;;;;;;;16.58;5.47;;;;;;;15.75;60.37;99015.94;5012682;28;20510;-84
2023/02/27 00:22:37;;;;;;;19.27;5.30;;;;;;;15.59;60.64;98977.41;5012697;28;20084;-84
2023/02/27 00:25:04;;;;;;;16.25;5.30;;;;;;;15.72;60.38;98990.59;5012764;28;20026;-83
2023/02/27 00:27:31;;;;;;;17.13;6.40;;;;;;;15.60;60.64;98983.56;5012603;28;20033;-84
2023/02/27 00:29:57;;;;;;;21.17;6.15;;;;;;;15.24;60.78;98943.44;5011558;28;20026;-84
2023/02/27 00:32:22;;;;;;;19.67;5.85;;;;;;;15.97;60.65;99016.28;5012708;28;20060;-84
2023/02/27 00:34:47;;;;;;;18.58;5.97;;;;;;;15.49;60.75;98963.81;5011766;28;20025;-85
2023/02/27 00:37:13;;;;;;;18.55;6.00;;;;;;;15.89;61.15;99025.38;5011572;28;20508;-84
2023/02/27 00:39:38;;;;;;;22.35;6.00;;;;;;;15.14;61.38;98937.81;5011605;28;20029;-84
2023/02/27 00:42:04;;;;;;;24.67;7.00;;;;;;;15.11;61.37;98903.72;5011239;28;20025;-84
2023/02/27 00:44:29;;;;;;;20.73;6.13;;;;;;;13.91;61.35;98730.63;5012488;28;20523;-84
2023/02/27 00:46:54;;;;;;;16.80;5.65;;;;;;;15.46;61.72;98980.22;5012558;28;20495;-85
2023/02/27 00:49:20;;;;;;;21.67;5.50;;;;;;;15.26;61.71;98932.56;5012579;28;20061;-84
2023/02/27 00:51:45;;;;;;;20.77;5.75;;;;;;;15.68;62.03;99002.72;5012483;28;20030;-84
2023/02/27 00:54:11;;;;;;;18.52;6.18;;;;;;;15.38;62.01;98959.25;5012402;28;20026;-84
2023/02/27 00:56:36;;;;;;;18.08;5.60;;;;;;;15.41;62.01;98972.09;5012443;28;20026;-84
2023/02/27 00:59:03;;;;;;;18.45;6.22;;;;;;;14.50;62.52;98816.88;5010174;28;20022;-83
2023/02/27 01:01:28;;;;;;;17.60;5.95;;;;;;;15.20;62.56;98930.81;5012509;28;20037;-84
2023/02/27 01:03:53;;;;;;;23.17;6.57;;;;;;;15.17;62.64;98918.78;5010798;28;20502;-84
2023/02/27 01:06:19;;;;;;;19.85;6.10;;;;;;;15.41;62.52;98966.78;5012132;28;20030;-84
2023/02/27 01:08:44;;;;;;;16.25;6.22;;;;;;;15.36;62.71;98964.78;5011897;28;20479;-83
2023/02/27 01:11:09;;;;;;;27.40;6.25;;;;;;;14.87;62.48;98868.19;5011872;28;20033;-84
2023/02/27 01:13:35;;;;;;;20.25;6.38;;;;;;;14.98;62.75;98893.22;5011853;28;20416;-83
2023/02/27 01:16:00;;;;;;;18.50;5.78;;;;;;;15.36;62.66;98963.97;5011857;28;20105;-84
2023/02/27 01:18:26;;;;;;;22.20;7.00;;;;;;;15.50;62.41;98992.03;5010501;28;20034;-84
2023/02/27 01:20:53;;;;;;;24.92;6.72;;;;;;;15.19;62.86;98931.84;5011855;28;20415;-85
2023/02/27 01:23:18;;;;;;;20.42;5.75;;;;;;;15.04;62.74;98932.22;5011947;28;20082;-84
2023/02/27 01:25:46;;;;;;;24.13;7.43;;;;;;;15.59;62.72;99014.69;5010593;28;20546;-84
2023/02/27 01:28:11;;;;;;;17.13;6.13;;;;;;;15.43;62.79;99001.94;5011742;28;20028;-84
2023/02/27 01:30:37;;;;;;;22.45;5.93;;;;;;;15.63;62.54;99033.69;5011783;28;20026;-84
2023/02/27 01:33:02;;;;;;;25.25;7.60;;;;;;;14.99;62.95;98958.66;5011573;28;20482;-84
2023/02/27 01:35:28;;;;;;;22.40;6.25;;;;;;;15.26;62.99;98997.22;5011513;28;20033;-84
2023/02/27 01:37:53;;;;;;;24.20;6.45;;;;;;;15.26;62.59;98975.94;5011775;28;20022;-85
2023/02/27 01:40:19;;;;;;;15.07;5.70;;;;;;;15.36;62.25;99030.47;5011633;28;20026;-86
2023/02/27 01:42:46;;;;;;;20.52;6.18;;;;;;;15.50;62.53;99042.59;5011680;28;20029;-84
2023/02/27 01:45:11;;;;;;;23.73;6.95;;;;;;;15.66;62.69;99043.91;5011541;28;20098;-84
2023/02/27 01:47:47;;;;;;;25.05;6.70;;;;;;;15.62;62.38;99032.88;5011555;28;20065;-84
2023/02/27 01:50:13;;;;;;;19.73;5.68;;;;;;;15.05;62.59;98944.47;5010176;28;20030;-84
2023/02/27 01:52:40;;;;;;;25.40;7.13;;;;;;;15.41;62.31;99012.00;5011386;28;20030;-84
2023/02/27 01:55:07;;;;;;;25.92;6.28;;;;;;;15.23;62.26;98976.38;5010176;28;20101;-84
2023/02/27 01:57:34;;;;;;;21.38;6.43;;;;;;;14.12;62.23;98809.06;5011629;28;20033;-84
2023/02/27 02:00:00;;;;;;;21.80;6.28;;;;;;;15.30;62.60;99005.56;5011367;28;20491;-84
2023/02/27 02:02:32;;;;;;;25.90;6.93;;;;;;;15.38;62.87;99005.28;5011452;28;20109;-84
2023/02/27 02:04:58;;;;;;;25.67;6.70;;;;;;;15.26;62.91;99010.53;5011473;28;20028;-84
2023/02/27 02:07:24;;;;;;;24.88;7.63;;;;;;;15.41;62.56;99027.97;5011358;28;20434;-84
2023/02/27 02:09:52;;;;;;;23.08;6.95;;;;;;;15.56;62.76;99047.03;5010735;28;20032;-84
2023/02/27 02:12:21;;;;;;;27.88;7.35;;;;;;;15.39;62.66;99011.41;5013857;28;20108;-84
2023/02/27 02:14:46;;;;;;;21.40;6.15;;;;;;;15.09;62.82;98963.47;5013765;28;20022;-83
2023/02/27 02:17:21;;;;;;;25.05;7.05;;;;;;;15.55;62.63;99053.38;5015016;28;20030;-84
2023/02/27 02:20:14;;;;;;;27.83;7.95;;;;;;;15.53;62.95;99053.59;5013542;28;20598;-84
2023/02/27 02:22:39;;;;;;;29.35;8.23;;;;;;;15.52;63.00;99038.66;5015138;28;20507;-84
2023/02/27 02:25:42;;;;;;;31.35;7.38;;;;;;;15.52;62.92;99029.88;5013904;28;20034;-84
2023/02/27 02:28:37;;;;;;;32.78;8.07;;;;;;;15.47;63.18;99035.88;5014967;28;20025;-84
2023/02/27 02:31:38;;;;;;;26.02;8.45;;;;;;;15.52;62.88;99022.72;5014951;28;20063;-84
2023/02/27 02:34:24;;;;;;;30.58;8.88;;;;;;;15.48;63.02;99026.84;5014106;28;20046;-84
2023/02/27 02:36:56;;;;;;;30.55;8.43;;;;;;;15.33;62.90;99017.59;5015118;28;20034;-84
2023/02/27 02:39:47;;;;;;;33.03;8.32;;;;;;;15.47;63.09;99049.16;5013457;28;20030;-84
2023/02/27 02:42:22;;;;;;;35.15;8.30;;;;;;;15.42;63.18;99064.97;5013243;28;20586;-83
2023/02/27 02:45:23;;;;;;;31.00;8.30;;;;;;;15.27;62.99;99043.25;5014490;28;20034;-84
2023/02/27 02:48:17;;;;;;;32.15;9.27;;;;;;;15.48;62.89;99079.25;5014662;28;20112;-84
2023/02/27 02:51:01;;;;;;;32.78;8.35;;;;;;;15.48;63.12;99081.91;5011221;28;20037;-84
2023/02/27 02:53:58;;;;;;;29.35;7.63;;;;;;;15.46;63.16;99086.63;5014184;28;20030;-84
2023/02/27 02:56:32;;;;;;;36.35;8.25;;;;;;;14.85;62.85;98986.38;5012658;28;20041;-85
2023/02/27 02:59:19;;;;;;;31.48;8.23;;;;;;;15.52;62.39;99083.91;5014223;28;20056;-84
2023/02/27 03:01:50;;;;;;;31.58;9.07;;;;;;;15.45;62.70;99087.66;5014254;28;20040;-84
2023/02/27 03:04:26;;;;;;;35.40;7.95;;;;;;;15.55;62.29;99070.16;5014296;28;20079;-84
2023/02/27 03:07:08;;;;;;;33.63;9.07;;;;;;;15.56;62.72;99057.66;5014336;28;20034;-84
2023/02/27 03:09:57;;;;;;;29.75;7.57;;;;;;;14.35;62.86;98880.13;5014400;28;20546;-84
2023/02/27 03:12:24;;;;;;;35.47;8.77;;;;;;;15.41;62.64;99046.56;5014064;28;20038;-84
2023/02/27 03:15:10;;;;;;;33.72;8.20;;;;;;;15.54;62.84;99073.03;5012881;28;20036;-85
2023/02/27 03:17:42;;;;;;;28.85;7.95;;;;;;;15.31;62.26;99039.13;5014084;28;20026;-85
2023/02/27 03:20:14;;;;;;;39.60;9.30;;;;;;;15.49;62.46;99086.19;5013981;28;20201;-84
2023/02/27 03:22:45;;;;;;;31.63;8.50;;;;;;;14.43;62.34;98948.13;5013041;28;20054;-84
2023/02/27 03:25:13;;;;;;;40.28;9.57;;;;;;;15.26;62.20;99047.75;5014006;28;20513;-84
2023/02/27 03:27:49;;;;;;;36.72;9.68;;;;;;;15.49;62.19;99080.88;5013922;28;20033;-83
2023/02/27 03:30:38;;;;;;;32.95;8.85;;;;;;;15.54;62.56;99086.34;5013670;28;20499;-84
2023/02/27 03:33:17;;;;;;;41.63;9.20;;;;;;;14.85;62.35;98963.25;5013740;28;20036;-85
2023/02/27 03:36:00;;;;;;;31.83;8.27;;;;;;;15.57;61.99;99088.56;5013570;28;20084;-84
2023/02/27 03:38:35;;;;;;;34.72;8.73;;;;;;;15.60;61.96;99096.13;5013732;28;20018;-85
2023/02/27 03:41:10;;;;;;;38.53;9.10;;;;;;;15.58;62.05;99090.22;5012365;28;20030;-84
2023/02/27 03:43:41;;;;;;;37.47;8.55;;;;;;;15.57;61.92;99091.22;5012448;28;20030;-84
2023/02/27 03:46:21;;;;;;;35.22;9.43;;;;;;;15.55;62.18;99103.94;5012115;28;20033;-84
2023/02/27 03:48:46;;;;;;;34.42;9.20;;;;;;;14.84;61.94;98985.56;5013670;28;20064;-83
2023/02/27 03:51:15;;;;;;;34.45;9.07;;;;;;;15.58;62.06;99106.19;5013380;28;20502;-84
2023/02/27 03:53:45;;;;;;;31.48;8.82;;;;;;;15.60;62.06;99109.44;5012930;28;20057;-84
2023/02/27 03:56:15;;;;;;;34.70;8.88;;;;;;;15.32;62.29;99087.81;5013054;28;20037;-83
2023/02/27 03:58:41;;;;;;;34.13;8.77;;;;;;;14.81;62.37;98993.97;5011631;28;20026;-84
2023/02/27 04:01:07;;;;;;;47.15;9.63;;;;;;;15.26;61.92;99118.75;5011859;28;20034;-84
2023/02/27 04:03:38;;;;;;;32.75;8.65;;;;;;;15.27;62.15;99102.56;5013163;28;20469;-84
2023/02/27 04:07:21;;;;;;;41.78;8.60;;;;;;;14.90;62.13;99066.31;5013272;28;20026;-84
2023/02/27 04:09:06;;;;;;;36.85;9.40;;;;;;;15.54;62.78;99147.53;5012992;28;20037;-84
2023/02/27 04:11:41;;;;;;;41.47;10.82;;;;;;;15.50;62.66;99152.50;5013039;28;20034;-84
2023/02/27 04:14:27;;;;;;;42.63;9.05;;;;;;;15.23;62.96;99116.53;5012955;28;20109;-83
2023/02/27 04:17:12;;;;;;;46.30;10.38;;;;;;;15.31;62.54;99136.72;5011187;28;20042;-84
2023/02/27 04:20:00;;;;;;;27.88;9.18;;;;;;;15.28;62.94;99140.63;5011667;28;20022;-83
2023/02/27 04:22:35;;;;;;;42.47;9.25;;;;;;;15.13;62.63;99124.19;5011618;28;20045;-83
2023/02/27 04:25:25;;;;;;;34.05;8.95;;;;;;;15.45;63.05;99178.94;5012764;28;20021;-83
2023/02/27 04:28:08;;;;;;;35.17;8.48;;;;;;;15.30;63.47;99164.34;5012640;28;20088;-84
2023/02/27 04:30:58;;;;;;;31.25;8.98;;;;;;;15.44;63.25;99187.13;5012686;28;20022;-83
2023/02/27 04:33:52;;;;;;;35.40;8.25;;;;;;;15.42;63.12;99184.69;5012350;28;20087;-83
2023/02/27 04:36:37;;;;;;;40.58;10.30;;;;;;;15.24;64.00;99188.13;5010736;28;20518;-84
2023/02/27 04:39:08;;;;;;;42.33;9.45;;;;;;;15.38;63.83;99217.28;5012467;28;20116;-85
2023/02/27 04:41:51;;;;;;;41.15;9.57;;;;;;;15.32;64.26;99218.94;5012430;28;20499;-84
2023/02/27 04:44:19;;;;;;;33.65;9.50;;;;;;;15.17;63.67;99192.69;5012354;28;20510;-84
2023/02/27 04:46:46;;;;;;;32.00;8.60;;;;;;;15.41;63.79;99265.53;5012425;28;20030;-84
2023/02/27 04:49:17;;;;;;;31.67;9.35;;;;;;;15.38;64.14;99252.66;5012457;28;20101;-83
2023/02/27 04:52:10;;;;;;;34.35;9.20;;;;;;;15.39;63.95;99240.19;5012242;28;20040;-83
2023/02/27 04:54:53;;;;;;;36.78;9.48;;;;;;;15.41;63.83;99254.09;5008402;28;20042;-83
2023/02/27 04:57:28;;;;;;;36.33;8.85;;;;;;;14.95;64.07;99191.41;5012007;28;20033;-83
2023/02/27 04:59:55;;;;;;;36.22;8.98;;;;;;;15.07;64.16;99226.09;5010577;28;20026;-84
2023/02/27 05:02:34;;;;;;;32.88;8.45;;;;;;;14.50;63.88;99138.31;5011897;28;20417;-86
2023/02/27 05:05:08;;;;;;;35.65;10.30;;;;;;;14.87;63.88;99204.94;5011812;28;20026;-84
2023/02/27 05:07:40;;;;;;;36.40;9.05;;;;;;;15.36;64.06;99284.00;5012089;28;20033;-83
2023/02/27 05:10:12;;;;;;;37.35;10.02;;;;;;;15.35;63.96;99271.72;5012161;28;20030;-84
2023/02/27 05:12:46;;;;;;;29.30;8.90;;;;;;;14.84;63.60;99205.34;5011999;28;20032;-84
2023/02/27 05:15:28;;;;;;;32.10;8.88;;;;;;;14.75;63.33;99193.34;5011891;28;20037;-84
2023/02/27 05:18:03;;;;;;;33.13;8.57;;;;;;;15.47;63.04;99301.09;5011876;28;20040;-84
2023/02/27 05:20:57;;;;;;;29.77;8.32;;;;;;;15.19;63.48;99248.31;5010503;28;20034;-84
2023/02/27 05:23:37;;;;;;;27.80;8.82;;;;;;;15.48;63.48;99300.88;5011360;28;20053;-83
2023/02/27 05:26:24;;;;;;;27.25;7.68;;;;;;;14.78;63.08;99179.63;5011653;28;20498;-83
2023/02/27 05:28:49;;;;;;;38.30;8.88;;;;;;;15.51;63.18;99307.63;5011415;28;20041;-83
2023/02/27 05:31:23;;;;;;;30.75;7.88;;;;;;;15.53;62.48;99321.53;5010596;28;20022;-83
2023/02/27 05:34:03;;;;;;;32.92;8.65;;;;;;;15.51;62.68;99315.59;5011744;28;20034;-84
2023/02/27 05:36:33;;;;;;;30.00;8.65;;;;;;;14.87;62.56;99224.38;5010448;28;20034;-84
2023/02/27 05:39:03;;;;;;;25.05;7.28;;;;;;;15.20;62.33;99268.56;5011520;28;20416;-84
2023/02/27 05:41:44;;;;;;;33.13;8.73;;;;;;;14.87;62.14;99221.72;5011427;28;20495;-83
2023/02/27 05:44:32;;;;;;;29.27;8.32;;;;;;;15.06;62.12;99251.88;5010304;28;20029;-84
2023/02/27 05:47:15;;;;;;;29.73;8.38;;;;;;;15.31;61.83;99299.78;5017874;28;20033;-84
2023/02/27 05:49:46;;;;;;;33.47;8.82;;;;;;;15.16;61.46;99285.97;5018062;28;20079;-84
2023/02/27 05:52:15;;;;;;;32.28;8.75;;;;;;;15.37;61.44;99316.72;5017973;28;20025;-83
2023/02/27 05:54:52;;;;;;;30.98;7.80;;;;;;;15.78;61.09;99361.53;5016617;28;20491;-83
2023/02/27 05:57:34;;;;;;;24.88;7.45;;;;;;;14.26;60.69;99117.78;5016703;28;20403;-83
2023/02/27 06:00:20;;;;;;;31.23;7.70;;;;;;;15.50;60.57;99335.25;5017944;28;20034;-84
2023/02/27 06:02:46;;;;;;;36.47;9.13;;;;;;;15.15;60.55;99303.75;5016689;28;20026;-84
2023/02/27 06:05:16;;;;;;;32.97;7.88;;;;;;;15.50;60.51;99381.31;5017881;28;20025;-83
2023/02/27 06:07:42;;;;;;;30.98;8.68;;;;;;;15.02;60.36;99300.38;5016584;28;20507;-84
2023/02/27 06:10:10;;;;;;;41.47;9.98;;;;;;;15.65;60.60;99410.34;5018011;28;20024;-84
2023/02/27 06:12:35;;;;;;;34.88;9.57;;;;;;;15.56;60.10;99432.88;5017867;28;20083;-84
2023/02/27 06:15:01;;;;;;;26.58;8.35;;;;;;;14.50;59.84;99267.66;5017886;28;20029;-83
2023/02/27 06:17:26;;;;;;;15.77;5.28;;;;;;;15.15;57.70;99415.47;5016495;28;20029;-83
2023/02/27 06:19:51;;;;;;;10.07;3.05;;;;;;;14.67;56.12;99374.28;5017526;28;20109;-84
2023/02/27 06:22:17;;;;;;;9.15;3.20;;;;;;;15.03;55.41;99417.13;5017789;28;20042;-83
2023/02/27 06:24:42;;;;;;;10.25;2.65;;;;;;;15.11;54.55;99450.66;5017440;28;20037;-83
2023/02/27 06:27:08;;;;;;;8.18;2.47;;;;;;;15.32;54.32;99494.78;5017523;28;20057;-83
2023/02/27 06:29:34;;;;;;;5.82;2.78;;;;;;;15.18;54.17;99467.41;5016678;28;20049;-82
2023/02/27 06:32:00;;;;;;;7.78;2.42;;;;;;;15.02;54.00;99458.03;5016232;28;20049;-82
2023/02/27 06:34:25;;;;;;;8.95;1.70;;;;;;;14.51;53.64;99405.59;5017868;28;20029;-83
2023/02/27 06:36:50;;;;;;;5.90;2.30;;;;;;;14.44;53.88;99391.50;5017491;28;20029;-84
2023/02/27 06:39:16;;;;;;;9.15;3.42;;;;;;;14.66;53.31;99417.81;5017219;28;20053;-83
2023/02/27 06:41:41;;;;;;;3.92;2.45;;;;;;;14.80;53.53;99443.34;5016055;28;20076;-84
2023/02/27 06:44:07;;;;;;;6.93;2.47;;;;;;;14.48;53.37;99381.28;5017507;28;20033;-85
2023/02/27 06:46:32;;;;;;;6.35;2.35;;;;;;;14.81;52.89;99431.69;5017414;28;20025;-84
2023/02/27 06:48:57;;;;;;;8.70;3.30;;;;;;;14.74;53.10;99409.63;5017437;28;20025;-84
2023/02/27 06:51:23;;;;;;;5.95;2.92;;;;;;;14.63;53.05;99384.50;5017550;28;20127;-84
2023/02/27 06:53:48;;;;;;;5.40;2.47;;;;;;;14.50;52.81;99356.13;5017362;28;20025;-84
2023/02/27 06:56:14;;;;;;;6.75;2.53;;;;;;;15.14;52.66;99442.25;5015692;28;20034;-84
2023/02/27 06:58:39;;;;;;;7.07;3.22;;;;;;;14.71;52.62;99373.66;5014116;28;20041;-84
2023/02/27 07:01:05;;;;;;;5.07;2.80;;;;;;;13.94;52.05;99229.16;5012977;28;20030;-84
2023/02/27 07:03:30;;;;;;;6.10;4.10;;;;;;;15.52;52.35;99474.22;5012935;28;20034;-84
2023/02/27 07:05:57;;;;;;;4.55;3.65;;;;;;;15.55;51.89;99487.13;5014146;28;20030;-84
2023/02/27 07:08:22;;;;;;;5.10;2.17;;;;;;;15.01;52.26;99387.28;5014040;28;20014;-84
2023/02/27 07:10:48;;;;;;;4.55;2.33;;;;;;;15.63;52.13;99470.97;5014470;28;20026;-84
2023/02/27 07:13:14;;;;;;;5.18;2.35;;;;;;;15.37;52.04;99420.47;5014125;28;20022;-84
2023/02/27 07:15:40;;;;;;;7.03;2.30;;;;;;;15.03;51.59;99385.22;5013964;28;20025;-83
2023/02/27 07:18:05;;;;;;;5.22;2.28;;;;;;;15.22;51.70;99399.47;5013950;28;20025;-84
2023/02/27 07:20:31;;;;;;;7.13;2.35;;;;;;;15.24;51.26;99427.50;5013711;28;20034;-83
2023/02/27 07:22:56;;;;;;;9.80;2.75;;;;;;;15.28;51.62;99403.94;5013730;28;20108;-83
2023/02/27 07:25:22;;;;;;;5.20;2.33;;;;;;;15.75;51.42;99455.13;5013783;28;20053;-84
2023/02/27 07:27:49;;;;;;;4.70;1.95;;;;;;;14.98;51.42;99339.84;5013684;28;20061;-84
2023/02/27 07:30:15;;;;;;;4.53;2.63;;;;;;;15.19;51.03;99365.31;5012121;28;20494;-84
2023/02/27 07:32:41;;;;;;;7.72;3.78;;;;;;;15.84;51.05;99469.84;5012207;28;20105;-84
2023/02/27 07:35:07;;;;;;;13.07;4.82;;;;;;;15.63;51.14;99423.06;5012066;28;20468;-85
2023/02/27 07:37:33;;;;;;;8.30;4.10;;;;;;;15.74;50.85;99425.03;5013415;28;20076;-84
2023/02/27 07:39:58;;;;;;;11.98;4.05;;;;;;;15.39;50.66;99354.56;5012230;28;20515;-84
2023/02/27 07:42:23;;;;;;;13.55;4.85;;;;;;;15.48;50.92;99355.94;5012073;28;20164;-84
2023/02/27 07:44:49;;;;;;;18.45;5.68;;;;;;;16.06;50.51;99423.19;5013453;28;20507;-84
2023/02/27 07:47:16;;;;;;;11.73;5.10;;;;;;;15.61;50.48;99355.94;5013426;28;20560;-83
2023/02/27 07:49:42;;;;;;;14.95;8.48;;;;;;;15.61;50.35;99336.47;5012188;28;20403;-84
2023/02/27 07:52:07;;;;;;;11.02;6.10;;;;;;;16.12;50.34;99408.19;5011880;28;20026;-84
2023/02/27 07:54:32;;;;;;;10.63;5.15;;;;;;;15.98;49.93;99374.69;5011511;28;20487;-83
2023/02/27 07:56:58;;;;;;;8.55;3.95;;;;;;;16.08;49.71;99412.31;5012966;28;20116;-84
2023/02/27 07:59:23;;;;;;;8.38;4.47;;;;;;;14.69;49.90;99183.56;5012863;28;20037;-84
2023/02/27 08:01:49;;;;;;;10.20;4.90;;;;;;;16.66;49.45;99460.03;5011499;28;20061;-84
2023/02/27 08:04:14;;;;;;;9.30;4.07;;;;;;;16.40;49.03;99410.44;5012917;28;20034;-84
2023/02/27 08:06:40;;;;;;;10.10;3.58;;;;;;;16.48;49.34;99424.28;5011625;28;20030;-84
2023/02/27 08:09:05;;;;;;;9.45;2.85;;;;;;;15.65;49.23;99279.13;5011245;28;20026;-84
2023/02/27 08:11:30;;;;;;;6.85;3.17;;;;;;;16.58;48.98;99430.97;5012782;28;20103;-84
2023/02/27 08:13:56;;;;;;;9.23;3.50;;;;;;;16.74;49.15;99452.59;5012994;28;20104;-84
2023/02/27 08:16:21;;;;;;;17.00;4.38;;;;;;;16.21;49.00;99362.41;4995118;28;20499;-84
2023/02/27 08:18:50;;;;;;;12.57;3.58;;;;;;;16.90;49.28;99471.72;4974870;28;20034;-84
2023/02/27 08:21:16;;;;;;;15.20;3.95;;;;;;;16.76;49.11;99476.34;4977434;28;20049;-84
2023/02/27 08:23:41;;;;;;;17.50;5.10;;;;;;;16.96;49.11;99470.81;4991450;28;20523;-84
2023/02/27 08:26:07;;;;;;;13.40;5.35;;;;;;;16.57;49.49;99397.34;4990288;28;20034;-83
2023/02/27 08:28:32;;;;;;;13.10;4.13;;;;;;;16.26;49.72;99347.63;4977397;28;20066;-84
2023/02/27 08:30:57;;;;;;;17.58;5.05;;;;;;;16.86;50.28;99428.66;4975755;28;20055;-84
2023/02/27 08:33:24;;;;;;;15.18;5.43;;;;;;;16.58;50.14;99377.66;4979017;28;20419;-84
2023/02/27 08:35:49;;;;;;;16.10;4.90;;;;;;;17.24;50.70;99470.34;4980827;28;20037;-83
2023/02/27 08:38:14;;;;;;;24.00;5.93;;;;;;;16.86;50.93;99393.19;4984370;28;20026;-83
2023/02/27 08:40:40;;;;;;;25.15;8.15;;;;;;;16.19;51.15;99310.38;4976344;28;20058;-83
2023/02/27 08:43:05;;;;;;;27.77;7.28;;;;;;;17.45;51.50;99472.56;4991343;28;20031;-83
2023/02/27 08:45:31;;;;;;;33.45;9.20;;;;;;;17.52;52.30;99475.13;4990941;28;20037;-83
2023/02/27 08:47:56;;;;;;;35.20;9.25;;;;;;;17.22;52.74;99443.06;4993172;28;20521;-84
2023/02/27 08:50:22;;;;;;;32.45;9.70;;;;;;;16.77;52.87;99355.34;4997882;28;20030;-84
2023/02/27 08:52:48;;;;;;;58.65;20.40;;;;;;;17.31;53.04;99436.38;5003726;28;20046;-85
2023/02/27 08:55:13;;;;;;;44.08;12.40;;;;;;;17.72;53.22;99495.22;4993832;28;20033;-85
2023/02/27 08:57:39;;;;;;;35.25;9.48;;;;;;;17.76;53.02;99493.75;5002408;28;20030;-84
2023/02/27 09:00:06;;;;;;;38.90;8.98;;;;;;;17.61;53.19;99463.91;4992112;28;20085;-85
2023/02/27 09:02:31;;;;;;;46.55;10.93;;;;;;;16.94;53.12;99332.38;4990037;28;20026;-84
2023/02/27 09:04:57;;;;;;;36.28;11.82;;;;;;;17.60;53.19;99430.25;4991281;28;20431;-84
2023/02/27 09:07:23;;;;;;;38.85;12.13;;;;;;;18.06;53.28;99484.94;4977701;28;20503;-84
2023/02/27 09:09:49;;;;;;;40.47;10.15;;;;;;;17.74;53.22;99437.06;4991356;28;20080;-85
2023/02/27 09:12:14;;;;;;;34.63;10.15;;;;;;;17.46;53.26;99381.56;4986167;28;20415;-84
2023/02/27 09:14:40;;;;;;;37.42;8.35;;;;;;;17.91;52.86;99453.28;4975441;28;20084;-84
2023/02/27 09:17:06;;;;;;;38.03;10.52;;;;;;;17.94;52.65;99454.69;4973127;28;20026;-83
2023/02/27 09:19:31;;;;;;;41.40;8.75;;;;;;;18.25;52.65;99486.50;4970232;28;20519;-84
2023/02/27 09:21:57;;;;;;;39.80;9.30;;;;;;;17.95;52.37;99429.63;4978294;28;20074;-83
2023/02/27 09:24:22;;;;;;;39.45;8.93;;;;;;;17.83;52.04;99404.69;4992039;28;20456;-84
2023/02/27 09:26:48;;;;;;;41.38;10.43;;;;;;;18.48;51.95;99506.28;4992162;28;20458;-84
2023/02/27 09:29:13;;;;;;;50.17;11.02;;;;;;;18.24;51.83;99457.31;4985979;28;20503;-83
2023/02/27 09:31:39;;;;;;;45.40;10.40;;;;;;;18.50;51.75;99485.47;4983611;28;20023;-82
2023/02/27 09:34:04;;;;;;;41.55;10.32;;;;;;;17.81;51.67;99358.72;4972700;28;20492;-84
2023/02/27 09:36:30;;;;;;;38.35;8.93;;;;;;;17.74;51.79;99353.47;4972564;28;20397;-84
2023/02/27 09:38:57;;;;;;;48.00;12.02;;;;;;;18.01;51.94;99410.00;4974424;28;20038;-85
2023/02/27 09:41:47;;;;;;;33.22;8.32;;;;;;;18.69;52.05;99487.06;4991571;28;20105;-83
2023/02/27 09:44:43;;;;;;;38.30;9.98;;;;;;;18.77;52.26;99483.22;4990025;28;20038;-83
2023/02/27 09:47:14;;;;;;;43.65;11.65;;;;;;;18.72;51.88;99482.06;4991608;28;20049;-84
2023/02/27 09:49:57;;;;;;;38.53;10.80;;;;;;;18.87;51.55;99483.47;4991788;28;20085;-84
2023/02/27 09:52:23;;;;;;;44.60;11.13;;;;;;;18.47;51.64;99424.44;4986417;28;20050;-85
2023/02/27 09:54:49;;;;;;;47.35;11.38;;;;;;;18.82;51.66;99476.13;4976525;28;20500;-82
2023/02/27 09:57:22;;;;;;;51.70;13.00;;;;;;;18.43;51.52;99408.88;4982165;28;20034;-84
2023/02/27 10:00:03;;;;;;;50.60;16.25;;;;;;;18.98;51.42;99491.47;4982593;28;20030;-84
2023/02/27 10:02:50;;;;;;;57.28;12.93;;;;;;;19.10;51.41;99499.50;4972369;28;20050;-84
2023/02/27 10:05:27;;;;;;;48.10;11.95;;;;;;;19.13;49.94;99498.22;4972468;28;20031;-82
2023/02/27 10:08:15;;;;;;;35.58;11.35;;;;;;;18.77;50.15;99433.22;4970697;28;20464;-85
2023/02/27 10:10:59;;;;;;;46.67;10.13;;;;;;;19.14;49.30;99508.69;4974742;28;20102;-84
2023/02/27 10:13:40;;;;;;;44.55;12.90;;;;;;;19.16;49.39;99497.75;4982989;28;20058;-83
2023/02/27 10:16:14;;;;;;;49.95;13.15;;;;;;;19.20;49.41;99496.22;4972101;28;20027;-84
2023/02/27 10:19:05;;;;;;;43.78;11.50;;;;;;;19.25;49.44;99475.72;4971884;28;20110;-83
2023/02/27 10:21:38;;;;;;;44.58;12.20;;;;;;;19.28;49.43;99483.28;4970286;28;20027;-83
2023/02/27 10:24:13;;;;;;;43.35;10.68;;;;;;;18.65;48.89;99386.97;4972365;28;20054;-83
2023/02/27 10:26:41;;;;;;;50.55;11.77;;;;;;;18.81;48.94;99429.03;4973133;28;20062;-83
2023/02/27 10:29:32;;;;;;;53.30;11.52;;;;;;;19.40;49.01;99487.84;4972305;28;20027;-84
2023/02/27 10:32:07;;;;;;;50.55;10.75;;;;;;;18.82;48.66;99417.28;4973575;28;20046;-84
2023/02/27 10:34:33;;;;;;;53.97;11.65;;;;;;;19.07;48.67;99451.81;4976222;28;20163;-84
2023/02/27 10:37:02;;;;;;;51.45;10.98;;;;;;;18.87;48.65;99425.41;4976362;28;20034;-84
2023/02/27 10:39:30;;;;;;;49.97;12.15;;;;;;;18.67;48.72;99406.25;4990955;28;20039;-84
2023/02/27 10:42:04;;;;;;;44.95;10.88;;;;;;;19.21;48.86;99490.63;4994718;28;20072;-82
2023/02/27 10:44:30;;;;;;;42.78;11.32;;;;;;;19.28;48.41;99502.03;4994911;28;20022;-83
2023/02/27 10:46:56;;;;;;;47.38;11.02;;;;;;;19.22;48.34;99492.25;4993909;28;20356;-83
2023/02/27 10:49:22;;;;;;;49.97;10.40;;;;;;;18.51;48.26;99377.50;4994108;28;20028;-83
2023/02/27 10:52:07;;;;;;;39.60;11.20;;;;;;;19.35;47.88;99501.94;4995201;28;20105;-83
2023/02/27 10:54:33;;;;;;;39.38;10.55;;;;;;;18.73;47.72;99392.75;4994715;28;20022;-84
2023/02/27 10:57:06;;;;;;;38.47;11.65;;;;;;;19.26;47.14;99439.88;4994748;28;20033;-84
2023/02/27 10:59:32;;;;;;;38.70;10.07;;;;;;;19.64;46.86;99489.44;4993118;28;20030;-85
2023/02/27 11:02:16;;;;;;;47.75;11.48;;;;;;;19.75;46.78;99477.03;4994862;28;20018;-84
2023/02/27 11:04:52;;;;;;;48.78;11.02;;;;;;;19.31;46.14;99373.06;4994528;28;20022;-83
2023/02/27 11:07:36;;;;;;;38.45;10.02;;;;;;;19.92;45.78;99467.19;4994476;28;20022;-83
2023/02/27 11:10:17;;;;;;;45.83;11.63;;;;;;;19.77;45.76;99429.38;4994478;28;20022;-84
2023/02/27 11:12:59;;;;;;;42.90;9.02;;;;;;;20.05;45.47;99444.63;4994448;28;20022;-85
2023/02/27 11:15:27;;;;;;;43.20;11.05;;;;;;;19.62;45.59;99368.31;4992814;28;20053;-84
2023/02/27 11:17:53;;;;;;;42.53;10.05;;;;;;;20.20;45.55;99448.41;4994017;28;20033;-83
2023/02/27 11:20:28;;;;;;;44.88;10.70;;;;;;;20.23;45.59;99445.22;4993919;28;20018;-84
2023/02/27 11:23:14;;;;;;;38.78;9.45;;;;;;;19.59;45.48;99348.19;4993801;28;20121;-84
2023/02/27 11:25:40;;;;;;;43.53;11.70;;;;;;;19.79;46.03;99403.16;4992616;28;20439;-84
2023/02/27 11:28:13;;;;;;;37.72;10.68;;;;;;;20.13;45.91;99438.88;4994023;28;20022;-84
2023/02/27 11:30:42;;;;;;;41.33;10.75;;;;;;;20.09;45.86;99441.25;4994135;28;20412;-84
2023/02/27 11:33:18;;;;;;;40.83;9.50;;;;;;;20.11;45.81;99446.34;4992861;28;20087;-85
2023/02/27 11:35:50;;;;;;;42.22;9.40;;;;;;;19.73;45.88;99390.75;4993903;28;20027;-85
2023/02/27 11:38:19;;;;;;;45.63;9.50;;;;;;;19.62;45.80;99379.03;4993867;28;20026;-84
2023/02/27 11:40:51;;;;;;;41.30;10.50;;;;;;;20.08;45.96;99436.94;4993402;28;20081;-83
2023/02/27 11:43:18;;;;;;;;;;;;;;;20.05;45.40;99441.94;4993416;28;20582;-84